KSJT/SJT METAR and TAF weather

Enter ICAO airport designator
Station Type Date Time Source
KSJT METAR 2022/01/18 06:51 UTC NOAA

KSJT 180651Z AUTO 19013G21KT 10SM CLR 13/M11 A2996 RMK AO2 SLP137 T01281106


Station Type Date Time Source
KSJT Decoded METAR 2022/01/18 06:51 UTC NOAA

MATHIS FIELD, TX, United States (KSJT) 31-21N 100-30W 581M
Jan 18, 2022 - 01:51 AM EST / 2022.01.18 0651 UTC
Wind: from the S (190 degrees) at 15 MPH (13 KT) gusting to 24 MPH (21 KT):0
Visibility: 10 mile(s):0
Sky conditions: clear
Temperature: 55.0 F (12.8 C)
Dew Point: 12.9 F (-10.6 C)
Relative Humidity: 18%
Pressure (altimeter): 29.96 in. Hg (1014 hPa)
ob: KSJT 180651Z AUTO 19013G21KT 10SM CLR 13/M11 A2996 RMK AO2 SLP137 T01281106
cycle: 7

Station Type Date Time Source
KSJT TAF 2022/01/18 06:22 UTC NOAA

TAF KSJT 180520Z 1806/1906 19008KT P6SM SCT250
FM181600 22021G31KT P6SM SKC

Example: see airport list